Time;durP1;ratioP1;P1;durP2;ratioP2;P2;SDS_P1;SDS_P2;PMS_P1;PMS_P2;Temp;Humidity;BMP_temperature;BMP_pressure;BME280_temperature;BME280_humidity;BME280_pressure;Samples;Min_cycle;Max_cycle;Signal;HPM_P1;HPM_P2
2023/09/06 00:01:23;;;;;;;1.15;0.80;;;;;;;;;;10366585;28;20053;-83
2023/09/06 00:06:27;;;;;;;1.30;1.00;;;;;;;;;;10397029;28;20037;-83
2023/09/06 00:11:33;;;;;;;1.65;1.05;;;;;;;;;;10371567;28;20041;-83
2023/09/06 00:16:37;;;;;;;1.05;0.75;;;;;;;;;;10406256;28;20041;-83
2023/09/06 00:21:41;;;;;;;1.52;1.10;;;;;;;;;;10405428;28;20048;-83
2023/09/06 00:26:46;;;;;;;2.08;0.75;;;;;;;;;;10392580;28;20050;-83
2023/09/06 00:31:49;;;;;;;1.80;1.05;;;;;;;;;;10401570;28;20119;-83
2023/09/06 00:36:54;;;;;;;0.98;0.80;;;;;;;;;;10377877;28;20590;-82
2023/09/06 00:42:00;;;;;;;1.10;0.90;;;;;;;;;;10378083;28;20909;-83
2023/09/06 00:47:04;;;;;;;1.67;0.98;;;;;;;;;;10387669;28;20048;-83
2023/09/06 00:52:07;;;;;;;2.05;0.98;;;;;;;;;;10363272;28;20483;-83
2023/09/06 00:57:12;;;;;;;1.05;0.80;;;;;;;;;;10363911;28;20546;-83
2023/09/06 01:02:16;;;;;;;1.77;0.90;;;;;;;;;;10398550;28;20044;-83
2023/09/06 01:07:21;;;;;;;1.02;0.93;;;;;;;;;;10370743;28;20045;-83
2023/09/06 01:12:25;;;;;;;1.40;0.90;;;;;;;;;;10395672;28;20045;-83
2023/09/06 01:17:30;;;;;;;1.52;0.90;;;;;;;;;;10385447;28;20042;-82
2023/09/06 01:22:41;;;;;;;1.10;1.00;;;;;;;;;;10362235;28;20038;-83
2023/09/06 01:27:48;;;;;;;3.33;1.00;;;;;;;;;;10365087;28;20486;-83
2023/09/06 01:32:51;;;;;;;1.17;0.90;;;;;;;;;;10371302;28;20042;-83
2023/09/06 01:37:56;;;;;;;2.15;0.85;;;;;;;;;;10379489;28;20034;-83
2023/09/06 01:43:01;;;;;;;2.20;1.38;;;;;;;;;;10368878;28;20049;-83
2023/09/06 01:48:06;;;;;;;0.95;0.88;;;;;;;;;;10401334;28;20406;-83
2023/09/06 01:53:09;;;;;;;1.08;0.93;;;;;;;;;;10399374;28;20502;-83
2023/09/06 01:58:14;;;;;;;1.60;1.10;;;;;;;;;;10383657;28;20034;-83
2023/09/06 02:03:18;;;;;;;1.23;0.70;;;;;;;;;;10377543;28;20068;-83
2023/09/06 02:08:21;;;;;;;1.42;0.95;;;;;;;;;;10389704;28;20132;-83
2023/09/06 02:13:27;;;;;;;1.52;0.88;;;;;;;;;;10355897;28;20046;-83
2023/09/06 02:18:31;;;;;;;1.25;0.80;;;;;;;;;;10352479;28;20570;-83
2023/09/06 02:23:35;;;;;;;1.48;1.10;;;;;;;;;;10369934;28;20059;-83
2023/09/06 02:28:40;;;;;;;2.63;1.00;;;;;;;;;;10351135;28;20042;-83
2023/09/06 02:33:44;;;;;;;1.48;0.98;;;;;;;;;;10368459;28;20053;-84
2023/09/06 02:38:47;;;;;;;1.42;1.10;;;;;;;;;;10369525;28;20053;-84
2023/09/06 02:43:52;;;;;;;1.27;1.02;;;;;;;;;;10351798;28;20061;-84
2023/09/06 02:48:58;;;;;;;1.55;0.80;;;;;;;;;;10351344;28;20058;-84
2023/09/06 02:54:02;;;;;;;1.10;0.93;;;;;;;;;;10339134;28;20050;-84
2023/09/06 02:59:07;;;;;;;0.95;0.85;;;;;;;;;;10351012;28;20483;-84
2023/09/06 03:04:13;;;;;;;1.45;1.00;;;;;;;;;;10356001;28;20129;-84
2023/09/06 03:09:16;;;;;;;1.27;1.05;;;;;;;;;;10358092;28;20414;-83
2023/09/06 03:14:22;;;;;;;1.73;0.95;;;;;;;;;;10358296;28;20041;-83
2023/09/06 03:19:26;;;;;;;1.97;0.90;;;;;;;;;;10368035;28;20038;-83
2023/09/06 03:24:29;;;;;;;1.67;1.02;;;;;;;;;;10358137;28;20077;-83
2023/09/06 03:29:37;;;;;;;1.15;1.00;;;;;;;;;;10357860;28;20569;-83
2023/09/06 03:34:45;;;;;;;1.25;0.90;;;;;;;;;;10358667;28;20042;-83
2023/09/06 03:39:53;;;;;;;1.05;0.95;;;;;;;;;;10356521;28;20049;-83
2023/09/06 03:45:02;;;;;;;1.83;1.15;;;;;;;;;;10357508;28;20042;-83
2023/09/06 03:50:07;;;;;;;0.90;0.80;;;;;;;;;;10356893;28;20044;-83
2023/09/06 03:55:11;;;;;;;1.58;1.10;;;;;;;;;;10355500;28;20069;-83
2023/09/06 04:00:23;;;;;;;1.75;1.27;;;;;;;;;;10354628;28;20089;-83
2023/09/06 04:05:40;;;;;;;1.83;1.15;;;;;;;;;;10374434;28;20056;-83
2023/09/06 04:10:46;;;;;;;1.38;1.05;;;;;;;;;;10357552;28;20395;-83
2023/09/06 04:15:52;;;;;;;1.40;0.85;;;;;;;;;;10372351;28;20057;-83
2023/09/06 04:20:59;;;;;;;2.03;1.20;;;;;;;;;;10374048;28;20038;-84
2023/09/06 04:26:04;;;;;;;1.13;0.98;;;;;;;;;;10356284;28;20069;-83
2023/09/06 04:31:10;;;;;;;1.00;0.90;;;;;;;;;;10355395;28;20072;-83
2023/09/06 04:36:19;;;;;;;3.25;1.10;;;;;;;;;;10361949;28;20042;-84
2023/09/06 04:41:26;;;;;;;1.90;1.20;;;;;;;;;;10354718;28;20042;-84
2023/09/06 04:46:35;;;;;;;1.15;0.80;;;;;;;;;;10364199;28;20046;-84
2023/09/06 04:51:39;;;;;;;1.37;0.87;;;;;;;;;;10353386;28;20104;-84
2023/09/06 04:56:43;;;;;;;3.38;1.05;;;;;;;;;;10353034;28;20608;-84
2023/09/06 05:01:48;;;;;;;1.50;1.23;;;;;;;;;;10365170;28;20045;-84
2023/09/06 05:06:52;;;;;;;1.63;1.05;;;;;;;;;;10350707;28;20287;-84
2023/09/06 05:11:56;;;;;;;3.40;1.50;;;;;;;;;;10338740;28;20479;-84
2023/09/06 05:17:01;;;;;;;1.30;1.13;;;;;;;;;;10354197;28;20045;-84
2023/09/06 05:22:05;;;;;;;1.30;1.05;;;;;;;;;;10357220;28;20058;-84
2023/09/06 05:27:09;;;;;;;1.27;1.00;;;;;;;;;;10358780;28;20046;-83
2023/09/06 05:32:18;;;;;;;1.48;1.13;;;;;;;;;;10355607;28;20041;-84
2023/09/06 05:37:24;;;;;;;0.98;0.88;;;;;;;;;;10370061;28;20591;-84
2023/09/06 05:42:28;;;;;;;2.58;1.35;;;;;;;;;;10353673;28;20064;-84
2023/09/06 05:47:35;;;;;;;2.72;1.38;;;;;;;;;;10358575;28;20038;-84
2023/09/06 05:52:40;;;;;;;2.03;1.13;;;;;;;;;;10353546;28;20038;-84
2023/09/06 05:57:44;;;;;;;2.50;1.50;;;;;;;;;;10370376;28;20081;-84
2023/09/06 06:02:49;;;;;;;3.28;1.48;;;;;;;;;;10359683;28;20120;-84
2023/09/06 06:07:53;;;;;;;1.40;1.30;;;;;;;;;;10352598;28;20071;-84
2023/09/06 06:12:56;;;;;;;1.60;1.00;;;;;;;;;;10351867;28;20038;-84
2023/09/06 06:18:02;;;;;;;2.60;1.15;;;;;;;;;;10368237;28;20046;-84
2023/09/06 06:23:05;;;;;;;1.50;1.23;;;;;;;;;;10369319;28;20034;-84
2023/09/06 06:28:09;;;;;;;2.10;1.25;;;;;;;;;;10369824;28;20038;-84
2023/09/06 06:33:14;;;;;;;1.30;1.10;;;;;;;;;;10351949;28;20089;-84
2023/09/06 06:38:17;;;;;;;1.75;1.10;;;;;;;;;;10372660;28;20050;-84
2023/09/06 06:43:21;;;;;;;2.78;1.00;;;;;;;;;;10359457;28;20045;-84
2023/09/06 06:48:26;;;;;;;1.77;1.10;;;;;;;;;;10376535;28;20053;-84
2023/09/06 06:53:29;;;;;;;1.48;1.20;;;;;;;;;;10375524;28;20124;-84
2023/09/06 06:58:33;;;;;;;1.13;1.00;;;;;;;;;;10376637;28;20092;-83
2023/09/06 07:03:38;;;;;;;2.08;1.52;;;;;;;;;;10359294;28;20101;-84
2023/09/06 07:08:41;;;;;;;1.52;1.25;;;;;;;;;;10376482;28;20042;-84
2023/09/06 07:20:14;;;;;;;3.50;1.67;;;;;;;;;;10369678;28;20038;-84
2023/09/06 07:25:17;;;;;;;1.57;1.30;;;;;;;;;;10356887;28;20121;-84
2023/09/06 07:30:21;;;;;;;1.40;1.05;;;;;;;;;;10373604;28;20651;-84
2023/09/06 07:35:25;;;;;;;1.90;1.25;;;;;;;;;;10375534;28;20054;-84
2023/09/06 07:40:29;;;;;;;1.40;1.08;;;;;;;;;;10354245;28;20042;-84
2023/09/06 07:45:32;;;;;;;1.08;0.90;;;;;;;;;;10358088;28;20054;-84
2023/09/06 07:50:37;;;;;;;2.05;1.33;;;;;;;;;;10370474;28;20048;-84
2023/09/06 07:55:44;;;;;;;3.05;1.60;;;;;;;;;;10373538;28;20046;-84
2023/09/06 08:00:48;;;;;;;2.20;1.88;;;;;;;;;;10372565;28;20101;-84
2023/09/06 08:05:55;;;;;;;2.13;1.38;;;;;;;;;;10368582;28;20089;-84
2023/09/06 08:10:59;;;;;;;1.48;1.10;;;;;;;;;;10376193;28;20050;-84
2023/09/06 08:16:03;;;;;;;1.63;1.27;;;;;;;;;;10372527;28;20050;-84
2023/09/06 08:21:08;;;;;;;1.13;1.02;;;;;;;;;;10374081;28;20152;-84
2023/09/06 08:26:12;;;;;;;1.03;0.83;;;;;;;;;;10372841;28;20052;-84
2023/09/06 08:31:15;;;;;;;1.50;0.93;;;;;;;;;;10373601;28;20097;-84
2023/09/06 08:36:20;;;;;;;3.25;1.35;;;;;;;;;;10371791;28;20050;-84
2023/09/06 08:41:26;;;;;;;2.33;1.55;;;;;;;;;;10372662;28;20048;-84
2023/09/06 08:46:34;;;;;;;3.53;2.15;;;;;;;;;;10373178;28;20046;-84
2023/09/06 08:51:41;;;;;;;2.25;1.35;;;;;;;;;;10350093;28;20046;-84
2023/09/06 08:56:45;;;;;;;1.85;1.23;;;;;;;;;;10372977;28;20085;-84
2023/09/06 09:01:50;;;;;;;1.80;1.23;;;;;;;;;;10361208;28;20089;-84
2023/09/06 09:06:54;;;;;;;2.83;1.80;;;;;;;;;;10371302;28;20057;-84
2023/09/06 09:11:59;;;;;;;2.85;1.45;;;;;;;;;;10338103;28;20093;-84
2023/09/06 09:17:03;;;;;;;2.88;1.77;;;;;;;;;;10370718;28;20046;-84
2023/09/06 09:22:08;;;;;;;1.63;1.33;;;;;;;;;;10371089;28;20037;-83
2023/09/06 09:27:11;;;;;;;2.23;1.40;;;;;;;;;;10357447;28;20456;-83
2023/09/06 09:32:15;;;;;;;1.42;1.20;;;;;;;;;;10353964;28;20041;-84
2023/09/06 09:37:21;;;;;;;3.40;1.30;;;;;;;;;;10354343;28;20096;-84
2023/09/06 09:42:26;;;;;;;2.70;1.15;;;;;;;;;;10353147;28;20098;-84
2023/09/06 09:47:30;;;;;;;1.25;1.13;;;;;;;;;;10354023;28;20046;-84
2023/09/06 09:52:48;;;;;;;1.67;1.25;;;;;;;;;;10370803;28;20069;-84
2023/09/06 09:57:53;;;;;;;2.25;1.27;;;;;;;;;;10353881;28;20038;-83
2023/09/06 10:02:58;;;;;;;1.52;1.17;;;;;;;;;;10352789;28;20050;-84
2023/09/06 10:08:08;;;;;;;2.08;1.40;;;;;;;;;;10370470;28;20053;-83
2023/09/06 10:13:13;;;;;;;1.70;1.50;;;;;;;;;;10361997;28;20034;-83
2023/09/06 10:18:18;;;;;;;1.98;1.55;;;;;;;;;;10369597;28;20117;-83
2023/09/06 10:23:23;;;;;;;1.77;1.67;;;;;;;;;;10368458;28;20046;-84
2023/09/06 10:28:31;;;;;;;1.23;1.10;;;;;;;;;;10369872;28;20042;-83
2023/09/06 10:33:59;;;;;;;2.28;1.60;;;;;;;;;;10369477;28;20034;-83
2023/09/06 10:39:25;;;;;;;3.50;1.90;;;;;;;;;;10368837;28;20049;-83
2023/09/06 10:44:30;;;;;;;3.78;1.75;;;;;;;;;;10404426;28;20042;-83
2023/09/06 10:49:33;;;;;;;2.10;1.75;;;;;;;;;;10390040;28;20077;-83
2023/09/06 10:54:41;;;;;;;1.67;1.45;;;;;;;;;;10404684;28;20050;-82
2023/09/06 10:59:46;;;;;;;2.13;1.70;;;;;;;;;;10408176;28;20049;-83
2023/09/06 11:04:49;;;;;;;2.25;1.40;;;;;;;;;;10391399;28;20045;-84
2023/09/06 11:09:54;;;;;;;1.50;1.33;;;;;;;;;;10399049;28;20045;-83
2023/09/06 11:14:58;;;;;;;1.73;1.25;;;;;;;;;;10391001;28;20049;-83
2023/09/06 11:20:12;;;;;;;1.85;1.67;;;;;;;;;;10398897;28;20053;-83
2023/09/06 11:25:21;;;;;;;1.25;1.15;;;;;;;;;;10350279;28;20048;-83
2023/09/06 11:30:26;;;;;;;1.98;1.60;;;;;;;;;;10346785;28;20563;-83
2023/09/06 11:35:32;;;;;;;;;;;;;;;;;;10362575;28;20042;-83
2023/09/06 11:40:39;;;;;;;1.58;1.38;;;;;;;;;;10395069;28;20294;-83
2023/09/06 11:45:45;;;;;;;2.22;1.60;;;;;;;;;;10399097;28;20049;-84
2023/09/06 11:50:52;;;;;;;1.77;1.58;;;;;;;;;;10416460;28;20038;-83
2023/09/06 11:56:00;;;;;;;1.45;1.20;;;;;;;;;;10398532;28;20088;-82
2023/09/06 12:01:05;;;;;;;1.63;1.52;;;;;;;;;;10391879;28;20371;-82
2023/09/06 12:06:09;;;;;;;1.83;1.60;;;;;;;;;;10415416;28;20037;-83
2023/09/06 12:30:18;;;;;;;2.25;1.55;;;;;;;;;;12829768;22;883770;-80
2023/09/06 12:35:21;;;;;;;1.23;1.13;;;;;;;;;;12714193;23;1204077;-80
2023/09/06 12:40:27;;;;;;;1.83;1.40;;;;;;;;;;12703306;23;20030;-79
2023/09/06 12:51:57;;;;;;;1.58;1.48;;;;;;;;;;12544256;23;20023;-85
2023/09/06 12:57:00;;;;;;;1.48;1.17;;;;;;;;;;12550573;23;20624;-86
2023/09/06 13:02:04;;;;;;;1.38;1.23;;;;;;;;;;12576157;23;20023;-86
2023/09/06 13:07:12;;;;;;;1.70;1.13;;;;;;;;;;12573965;23;20454;-86
2023/09/06 13:12:15;;;;;;;2.13;1.60;;;;;;;;;;12568664;23;20046;-86
2023/09/06 13:17:19;;;;;;;2.15;1.50;;;;;;;;;;12575348;23;20420;-85
2023/09/06 13:22:24;;;;;;;1.70;1.60;;;;;;;;;;12567415;23;20027;-85
2023/09/06 13:27:27;;;;;;;;;;;;;;;;;;12521722;23;20521;-86
2023/09/06 13:32:32;;;;;;;1.88;1.17;;;;;;;;;;12537017;23;19918;-86
2023/09/06 13:37:36;;;;;;;1.67;1.10;;;;;;;;;;12511658;23;20068;-85
2023/09/06 13:42:40;;;;;;;1.63;1.33;;;;;;;;;;12536907;23;20070;-85
2023/09/06 13:47:45;;;;;;;2.35;1.40;;;;;;;;;;12510870;23;20474;-85
2023/09/06 13:52:51;;;;;;;1.55;1.27;;;;;;;;;;12561055;23;20031;-85
2023/09/06 13:57:54;;;;;;;1.73;1.38;;;;;;;;;;12537142;23;20031;-85
2023/09/06 14:02:58;;;;;;;1.30;1.20;;;;;;;;;;12536044;23;20050;-85
2023/09/06 14:08:05;;;;;;;1.90;1.40;;;;;;;;;;12550975;23;20034;-85
2023/09/06 14:13:09;;;;;;;1.35;1.25;;;;;;;;;;12552333;23;20038;-85
2023/09/06 14:18:12;;;;;;;1.50;1.17;;;;;;;;;;12548456;23;20022;-85
2023/09/06 14:23:17;;;;;;;2.05;1.10;;;;;;;;;;12555419;23;20034;-85
2023/09/06 14:28:20;;;;;;;1.95;1.13;;;;;;;;;;12534866;23;20031;-86
2023/09/06 14:33:24;;;;;;;1.55;1.00;;;;;;;;;;12559509;23;20030;-85
2023/09/06 14:38:29;;;;;;;1.25;1.02;;;;;;;;;;12558531;23;20354;-85
2023/09/06 14:43:33;;;;;;;;;;;;;;;;;;12537421;23;20039;-86
2023/09/06 14:48:36;;;;;;;1.30;1.02;;;;;;;;;;12508999;23;19917;-84
2023/09/06 14:53:41;;;;;;;2.63;1.08;;;;;;;;;;12555687;23;20123;-86
2023/09/06 14:58:45;;;;;;;;;;;;;;;;;;12533653;23;20083;-85
2023/09/06 15:03:49;;;;;;;0.77;0.73;;;;;;;;;;12547007;23;20308;-86
2023/09/06 15:08:56;;;;;;;1.10;0.90;;;;;;;;;;12551882;23;20055;-85
2023/09/06 15:14:00;;;;;;;0.82;0.82;;;;;;;;;;12558005;23;20037;-85
2023/09/06 15:19:03;;;;;;;0.70;0.70;;;;;;;;;;12553401;23;20054;-86
2023/09/06 15:24:10;;;;;;;1.20;1.10;;;;;;;;;;12536496;23;20476;-85
2023/09/06 15:29:14;;;;;;;1.30;1.20;;;;;;;;;;12558869;23;20092;-86
2023/09/06 15:34:18;;;;;;;1.15;1.05;;;;;;;;;;12513891;23;20027;-88
2023/09/06 15:39:25;;;;;;;2.58;0.80;;;;;;;;;;12512715;23;20416;-86
2023/09/06 15:44:29;;;;;;;0.80;0.80;;;;;;;;;;12513515;23;20026;-87
2023/09/06 15:49:33;;;;;;;1.20;1.10;;;;;;;;;;12506412;23;20022;-88
2023/09/06 15:54:38;;;;;;;;;;;;;;;;;;12540801;23;20026;-86
2023/09/06 15:59:46;;;;;;;1.33;1.05;;;;;;;;;;12513159;23;20298;-87
2023/09/06 16:04:49;;;;;;;1.23;0.95;;;;;;;;;;12544424;23;20047;-88
2023/09/06 16:09:54;;;;;;;1.00;0.90;;;;;;;;;;12536075;23;20061;-86
2023/09/06 16:14:57;;;;;;;1.70;1.08;;;;;;;;;;12536831;23;20030;-86
2023/09/06 16:20:01;;;;;;;1.50;1.17;;;;;;;;;;12542965;23;20058;-87
2023/09/06 16:25:07;;;;;;;1.35;0.90;;;;;;;;;;12537054;23;20026;-88
2023/09/06 16:30:11;;;;;;;1.70;0.98;;;;;;;;;;12511107;23;20035;-86
2023/09/06 16:35:15;;;;;;;1.08;0.98;;;;;;;;;;12578173;23;20089;-87
2023/09/06 16:40:21;;;;;;;2.38;0.75;;;;;;;;;;12547957;23;20059;-87
2023/09/06 16:45:27;;;;;;;1.40;1.13;;;;;;;;;;12581984;23;20030;-85
2023/09/06 16:50:31;;;;;;;2.25;1.08;;;;;;;;;;12534405;23;20023;-86
2023/09/06 16:55:36;;;;;;;0.82;0.80;;;;;;;;;;12559947;23;20053;-88
2023/09/06 17:00:39;;;;;;;1.27;1.00;;;;;;;;;;12633199;23;20022;-87
2023/09/06 17:05:47;;;;;;;1.00;0.90;;;;;;;;;;12635358;23;20026;-87
2023/09/06 17:10:52;;;;;;;2.03;0.90;;;;;;;;;;12663373;23;20022;-87
2023/09/06 17:15:56;;;;;;;3.15;1.23;;;;;;;;;;12633761;23;20093;-86
2023/09/06 17:20:59;;;;;;;5.68;1.70;;;;;;;;;;12430754;23;20035;-87
2023/09/06 17:26:07;;;;;;;1.48;1.38;;;;;;;;;;12461973;23;20032;-86
2023/09/06 17:31:10;;;;;;;1.38;1.15;;;;;;;;;;12419833;23;20019;-87
2023/09/06 17:36:13;;;;;;;2.40;1.48;;;;;;;;;;12468983;23;20089;-86
2023/09/06 17:41:18;;;;;;;2.72;1.30;;;;;;;;;;12453097;23;20413;-87
2023/09/06 17:46:24;;;;;;;2.42;1.27;;;;;;;;;;12474006;23;20216;-87
2023/09/06 17:51:30;;;;;;;1.35;1.15;;;;;;;;;;12425866;23;20070;-86
2023/09/06 17:56:36;;;;;;;1.80;1.30;;;;;;;;;;12395636;23;20038;-87
2023/09/06 18:15:17;;;;;;;1.85;1.38;;;;;;;;;;12416171;23;20020;-87
2023/09/06 18:20:20;;;;;;;2.20;1.47;;;;;;;;;;12420245;23;20162;-87
2023/09/06 18:25:24;;;;;;;2.40;1.35;;;;;;;;;;12395063;23;20032;-86
2023/09/06 18:30:30;;;;;;;1.25;0.90;;;;;;;;;;12419221;23;20532;-87
2023/09/06 18:35:33;;;;;;;1.70;1.40;;;;;;;;;;12419136;23;20084;-86
2023/09/06 18:40:37;;;;;;;1.75;1.45;;;;;;;;;;12421572;23;20106;-87
2023/09/06 18:45:43;;;;;;;2.65;1.52;;;;;;;;;;12418517;23;20027;-88
2023/09/06 18:50:47;;;;;;;2.42;1.55;;;;;;;;;;12424763;23;20415;-87
2023/09/06 18:55:51;;;;;;;2.30;1.50;;;;;;;;;;12423086;23;20028;-89
2023/09/06 19:00:57;;;;;;;1.52;1.42;;;;;;;;;;12420734;23;20020;-86
2023/09/06 19:06:01;;;;;;;4.72;1.42;;;;;;;;;;12423048;23;20072;-87
2023/09/06 19:11:05;;;;;;;1.75;1.63;;;;;;;;;;12425652;23;20106;-87
2023/09/06 19:16:09;;;;;;;2.92;1.77;;;;;;;;;;12421776;23;20047;-88
2023/09/06 19:21:13;;;;;;;5.73;1.93;;;;;;;;;;12470018;23;20426;-86
2023/09/06 19:26:17;;;;;;;3.05;1.85;;;;;;;;;;12545600;23;20083;-86
2023/09/06 19:31:22;;;;;;;2.13;1.42;;;;;;;;;;12568428;23;20081;-85
2023/09/06 19:36:27;;;;;;;2.05;1.50;;;;;;;;;;12568955;23;20418;-88
2023/09/06 19:41:30;;;;;;;3.42;1.80;;;;;;;;;;12597355;23;20030;-87
2023/09/06 19:46:35;;;;;;;1.77;1.65;;;;;;;;;;12602738;23;20382;-88
2023/09/06 19:51:40;;;;;;;2.20;1.50;;;;;;;;;;12603800;23;20442;-87
2023/09/06 19:56:43;;;;;;;2.88;1.88;;;;;;;;;;12622695;23;20018;-89
2023/09/06 20:01:48;;;;;;;2.65;1.50;;;;;;;;;;12578581;23;20078;-87
2023/09/06 20:06:51;;;;;;;1.98;1.67;;;;;;;;;;12598333;23;20089;-87
2023/09/06 20:11:54;;;;;;;3.28;1.75;;;;;;;;;;12601061;23;20023;-87
2023/09/06 20:17:02;;;;;;;3.78;1.85;;;;;;;;;;12600796;23;20034;-88
2023/09/06 20:22:06;;;;;;;1.88;1.52;;;;;;;;;;12598469;23;20030;-88
2023/09/06 20:27:09;;;;;;;2.55;1.60;;;;;;;;;;12618957;23;20264;-87
2023/09/06 20:32:14;;;;;;;2.33;1.73;;;;;;;;;;12599553;23;20074;-87
2023/09/06 20:37:18;;;;;;;2.45;1.85;;;;;;;;;;12603038;23;20026;-87
2023/09/06 20:42:21;;;;;;;2.90;1.70;;;;;;;;;;12605388;23;20474;-88
2023/09/06 20:47:27;;;;;;;3.53;1.90;;;;;;;;;;12581369;23;20061;-89
2023/09/06 20:52:31;;;;;;;1.70;1.50;;;;;;;;;;12605592;23;20031;-88
2023/09/06 20:57:34;;;;;;;8.18;2.35;;;;;;;;;;12605948;23;20109;-87
2023/09/06 21:02:39;;;;;;;2.65;2.05;;;;;;;;;;12606087;23;20484;-87
2023/09/06 21:07:43;;;;;;;2.73;1.67;;;;;;;;;;12581335;23;20056;-88
2023/09/06 21:12:46;;;;;;;2.25;1.65;;;;;;;;;;12581731;23;20037;-89
2023/09/06 21:17:53;;;;;;;1.42;1.33;;;;;;;;;;12605122;23;20030;-87
2023/09/06 21:22:56;;;;;;;2.92;1.83;;;;;;;;;;12622348;23;20033;-87
2023/09/06 21:28:00;;;;;;;1.98;1.73;;;;;;;;;;12606758;23;20026;-88
2023/09/06 21:33:05;;;;;;;3.38;1.65;;;;;;;;;;12581272;23;20037;-87
2023/09/06 21:38:08;;;;;;;1.80;1.50;;;;;;;;;;12601566;23;20028;-88
2023/09/06 21:43:13;;;;;;;2.33;1.70;;;;;;;;;;12620193;23;20030;-87
2023/09/06 21:48:23;;;;;;;2.88;1.65;;;;;;;;;;12579950;23;20085;-87
2023/09/06 21:53:27;;;;;;;3.38;1.90;;;;;;;;;;12620350;23;20367;-87
2023/09/06 21:58:33;;;;;;;3.28;1.70;;;;;;;;;;12583568;23;20093;-88
2023/09/06 22:03:53;;;;;;;6.53;2.42;;;;;;;;;;12617528;23;20097;-86
2023/09/06 22:09:15;;;;;;;3.90;1.73;;;;;;;;;;12609995;23;20018;-86
2023/09/06 22:14:37;;;;;;;2.25;1.67;;;;;;;;;;12602298;23;20023;-87
2023/09/06 22:19:42;;;;;;;6.80;1.70;;;;;;;;;;12602985;23;20023;-87
2023/09/06 22:24:45;;;;;;;2.38;1.80;;;;;;;;;;12579258;23;20030;-87
2023/09/06 22:29:49;;;;;;;2.90;1.90;;;;;;;;;;12602552;23;20639;-87
2023/09/06 22:34:55;;;;;;;2.22;1.63;;;;;;;;;;12579651;23;20049;-87
2023/09/06 22:39:59;;;;;;;2.15;1.83;;;;;;;;;;12602019;23;20018;-87
2023/09/06 22:45:03;;;;;;;2.75;1.70;;;;;;;;;;12596462;23;20237;-86
2023/09/06 22:50:09;;;;;;;2.45;1.77;;;;;;;;;;12598999;23;20362;-84
2023/09/06 22:55:14;;;;;;;2.28;1.88;;;;;;;;;;12597371;23;20059;-85
2023/09/06 23:00:17;;;;;;;3.22;1.85;;;;;;;;;;12597244;23;20026;-86
2023/09/06 23:05:22;;;;;;;2.13;1.63;;;;;;;;;;12584866;23;20031;-86
2023/09/06 23:10:26;;;;;;;2.10;1.75;;;;;;;;;;12611757;23;20026;-86
2023/09/06 23:15:29;;;;;;;2.42;1.60;;;;;;;;;;12572771;23;20470;-86
2023/09/06 23:20:40;;;;;;;2.80;1.63;;;;;;;;;;12573042;23;20030;-87
2023/09/06 23:25:46;;;;;;;2.33;1.65;;;;;;;;;;12597805;23;20029;-86
2023/09/06 23:30:54;;;;;;;;;;;;;;;;;;12599596;23;20119;-86
2023/09/06 23:35:58;;;;;;;1.65;1.52;;;;;;;;;;12596625;23;19931;-86
2023/09/06 23:41:03;;;;;;;2.42;1.88;;;;;;;;;;12598390;23;20784;-86
2023/09/06 23:46:06;;;;;;;2.25;1.80;;;;;;;;;;12573477;23;20057;-86
2023/09/06 23:51:11;;;;;;;2.05;1.80;;;;;;;;;;12573081;23;20551;-86
2023/09/06 23:56:16;;;;;;;1.77;1.50;;;;;;;;;;12571302;23;20652;-86
